Impacts TAF Board
For situational awareness. Not to be used for flight planning purposes.
IDs:

KSRQ - Sarasota-Bradenton I, FL, US

Issued at 0527 UTC 03 Aug 2021
Updated at 0849 UTC 03 Aug 2021
Potential Impact None Slight Moderate High
Time0753Z 03/09Z 03/10Z 03/11Z 03/12Z 03/13Z 03/14Z 03/15Z 03/16Z 03/17Z 03/18Z 03/19Z 03/20Z 03/21Z>>
Type OBS PRVL PRVL PRVL PRVL PRVL PRVL PRVL PRVL PRVL PRVL PRVL PRVL PRVL
VIS 10 >6 >6 >6 >6 >6 >6 >6 >6 >6 >6 >6 >6 >6
CIG -- 250 250 250 250 250 250 250 100 100 100 100 100 100
Cover SCT BKN BKN BKN BKN BKN BKN BKN BKN BKN BKN BKN BKN BKN
FltCat VFR VFR VFR VFR VFR VFR VFR VFR VFR VFR VFR VFR VFR VFR
WX -- VCSH VCSH VCSH VCSH VCSH VCSH VCSH VCTS VCTS VCTS VCTS VCTS VCSH
WDir 230 230 230 230 230 230 230 230 250 250 250 250 250 240
WSpd 10 8 8 8 8 8 8 8 12 12 12 12 12 11
WGst -- -- -- -- -- -- -- -- -- -- -- -- -- --
Raw TAF
KSRQ 030527Z 0306/0406 22007KT P6SM FEW025 BKN250
  FM030800 23008KT P6SM VCSH SCT025 BKN250
  FM031600 25012KT P6SM VCTS SCT030CB BKN100 BKN250
  FM032100 24011KT P6SM VCSH SCT020 BKN100 BKN250
  FM040400 22007KT P6SM SCT020 BKN250


Raw METAR
KSRQ 030753Z AUTO 23010KT 10SM SCT026 29/24 A2994 RMK AO2 SLP139 T02940239
KSRQ 030653Z AUTO 21008KT 10SM CLR 29/23 A2996 RMK AO2 SLP145 T02940233
KSRQ 030553Z AUTO 21009KT 10SM CLR 29/23 A2998 RMK AO2 SLP150 T02940233 10300 20294 58014

METAR Board
Radar Display
Forecast Discussion
For situational awareness. Not to be used for flight planning purposes.